sensor_id;sensor_type;location;lat;lon;timestamp;P1;durP1;ratioP1;P2;durP2;ratioP2
66093;SDS011;52876;49.394;10.892;2023-01-15T00:02:21;1.40;;;1.17;;
66093;SDS011;52876;49.394;10.892;2023-01-15T00:04:49;3.40;;;1.70;;
66093;SDS011;52876;49.394;10.892;2023-01-15T00:07:15;1.70;;;1.20;;
66093;SDS011;52876;49.394;10.892;2023-01-15T00:09:40;1.97;;;1.60;;
66093;SDS011;52876;49.394;10.892;2023-01-15T00:12:07;1.87;;;1.40;;
66093;SDS011;52876;49.394;10.892;2023-01-15T00:14:33;1.80;;;1.70;;
66093;SDS011;52876;49.394;10.892;2023-01-15T00:17:01;2.33;;;2.00;;
66093;SDS011;52876;49.394;10.892;2023-01-15T00:19:26;2.07;;;1.50;;
66093;SDS011;52876;49.394;10.892;2023-01-15T00:21:53;2.53;;;2.20;;
66093;SDS011;52876;49.394;10.892;2023-01-15T00:24:19;1.40;;;1.30;;
66093;SDS011;52876;49.394;10.892;2023-01-15T00:26:46;1.20;;;1.10;;
66093;SDS011;52876;49.394;10.892;2023-01-15T00:29:12;1.30;;;1.20;;
66093;SDS011;52876;49.394;10.892;2023-01-15T00:31:39;1.97;;;1.70;;
66093;SDS011;52876;49.394;10.892;2023-01-15T00:34:06;1.10;;;0.90;;
66093;SDS011;52876;49.394;10.892;2023-01-15T00:36:33;2.60;;;2.40;;
66093;SDS011;52876;49.394;10.892;2023-01-15T00:38:59;1.20;;;1.10;;
66093;SDS011;52876;49.394;10.892;2023-01-15T00:41:26;1.27;;;1.17;;
66093;SDS011;52876;49.394;10.892;2023-01-15T00:43:52;1.83;;;1.10;;
66093;SDS011;52876;49.394;10.892;2023-01-15T00:46:18;1.37;;;1.10;;
66093;SDS011;52876;49.394;10.892;2023-01-15T00:48:45;1.63;;;1.00;;
66093;SDS011;52876;49.394;10.892;2023-01-15T00:51:10;1.10;;;0.90;;
66093;SDS011;52876;49.394;10.892;2023-01-15T00:53:36;1.77;;;1.10;;
66093;SDS011;52876;49.394;10.892;2023-01-15T00:56:02;1.10;;;1.00;;
66093;SDS011;52876;49.394;10.892;2023-01-15T00:58:28;1.00;;;0.90;;
66093;SDS011;52876;49.394;10.892;2023-01-15T01:00:56;1.50;;;1.40;;
66093;SDS011;52876;49.394;10.892;2023-01-15T01:03:23;1.70;;;1.03;;
66093;SDS011;52876;49.394;10.892;2023-01-15T01:05:50;1.43;;;1.20;;
66093;SDS011;52876;49.394;10.892;2023-01-15T01:08:16;1.27;;;1.10;;
66093;SDS011;52876;49.394;10.892;2023-01-15T01:10:43;1.10;;;0.93;;
66093;SDS011;52876;49.394;10.892;2023-01-15T01:13:09;1.10;;;0.80;;
66093;SDS011;52876;49.394;10.892;2023-01-15T01:15:37;1.10;;;0.90;;
66093;SDS011;52876;49.394;10.892;2023-01-15T01:18:03;2.00;;;1.40;;
66093;SDS011;52876;49.394;10.892;2023-01-15T01:20:29;1.00;;;0.90;;
66093;SDS011;52876;49.394;10.892;2023-01-15T01:22:57;1.07;;;0.97;;
66093;SDS011;52876;49.394;10.892;2023-01-15T01:25:23;1.17;;;1.00;;
66093;SDS011;52876;49.394;10.892;2023-01-15T01:27:50;1.30;;;1.00;;
66093;SDS011;52876;49.394;10.892;2023-01-15T01:30:16;1.47;;;0.90;;
66093;SDS011;52876;49.394;10.892;2023-01-15T01:32:47;1.90;;;0.90;;
66093;SDS011;52876;49.394;10.892;2023-01-15T01:35:13;1.17;;;0.97;;
66093;SDS011;52876;49.394;10.892;2023-01-15T01:37:40;1.00;;;0.90;;
66093;SDS011;52876;49.394;10.892;2023-01-15T01:40:08;1.10;;;0.90;;
66093;SDS011;52876;49.394;10.892;2023-01-15T01:42:37;1.73;;;0.90;;
66093;SDS011;52876;49.394;10.892;2023-01-15T01:45:05;0.97;;;0.87;;
66093;SDS011;52876;49.394;10.892;2023-01-15T01:47:37;1.10;;;1.00;;
66093;SDS011;52876;49.394;10.892;2023-01-15T01:50:04;1.10;;;0.90;;
66093;SDS011;52876;49.394;10.892;2023-01-15T01:52:36;1.20;;;0.90;;
66093;SDS011;52876;49.394;10.892;2023-01-15T01:55:10;1.73;;;0.77;;
66093;SDS011;52876;49.394;10.892;2023-01-15T01:57:39;1.13;;;0.90;;
66093;SDS011;52876;49.394;10.892;2023-01-15T02:00:06;1.00;;;0.80;;
66093;SDS011;52876;49.394;10.892;2023-01-15T02:02:35;1.40;;;0.87;;
66093;SDS011;52876;49.394;10.892;2023-01-15T02:05:00;1.17;;;1.07;;
66093;SDS011;52876;49.394;10.892;2023-01-15T02:07:29;1.00;;;0.80;;
66093;SDS011;52876;49.394;10.892;2023-01-15T02:09:55;1.10;;;0.80;;
66093;SDS011;52876;49.394;10.892;2023-01-15T02:12:24;1.00;;;0.90;;
66093;SDS011;52876;49.394;10.892;2023-01-15T02:14:54;1.07;;;0.90;;
66093;SDS011;52876;49.394;10.892;2023-01-15T02:17:29;1.00;;;0.90;;
66093;SDS011;52876;49.394;10.892;2023-01-15T02:20:02;0.90;;;0.80;;
66093;SDS011;52876;49.394;10.892;2023-01-15T02:22:43;1.87;;;1.00;;
66093;SDS011;52876;49.394;10.892;2023-01-15T02:25:20;1.33;;;0.70;;
66093;SDS011;52876;49.394;10.892;2023-01-15T02:27:56;0.80;;;0.60;;
66093;SDS011;52876;49.394;10.892;2023-01-15T02:30:27;1.17;;;0.90;;
66093;SDS011;52876;49.394;10.892;2023-01-15T02:32:57;1.10;;;0.90;;
66093;SDS011;52876;49.394;10.892;2023-01-15T02:35:30;1.07;;;0.87;;
66093;SDS011;52876;49.394;10.892;2023-01-15T02:38:02;1.10;;;0.80;;
66093;SDS011;52876;49.394;10.892;2023-01-15T02:40:32;1.00;;;0.67;;
66093;SDS011;52876;49.394;10.892;2023-01-15T02:43:00;1.73;;;0.80;;
66093;SDS011;52876;49.394;10.892;2023-01-15T02:45:29;1.00;;;0.83;;
66093;SDS011;52876;49.394;10.892;2023-01-15T02:47:57;1.00;;;0.90;;
66093;SDS011;52876;49.394;10.892;2023-01-15T02:50:28;1.07;;;0.70;;
66093;SDS011;52876;49.394;10.892;2023-01-15T02:53:00;1.10;;;1.00;;
66093;SDS011;52876;49.394;10.892;2023-01-15T02:55:29;1.00;;;0.70;;
66093;SDS011;52876;49.394;10.892;2023-01-15T02:57:57;0.97;;;0.73;;
66093;SDS011;52876;49.394;10.892;2023-01-15T03:00:30;1.00;;;0.80;;
66093;SDS011;52876;49.394;10.892;2023-01-15T03:03:00;0.93;;;0.70;;
66093;SDS011;52876;49.394;10.892;2023-01-15T03:05:34;1.00;;;0.80;;
66093;SDS011;52876;49.394;10.892;2023-01-15T03:08:04;1.00;;;0.80;;
66093;SDS011;52876;49.394;10.892;2023-01-15T03:10:36;1.00;;;0.80;;
66093;SDS011;52876;49.394;10.892;2023-01-15T03:13:09;1.00;;;0.70;;
66093;SDS011;52876;49.394;10.892;2023-01-15T03:15:43;1.00;;;0.80;;
66093;SDS011;52876;49.394;10.892;2023-01-15T03:18:15;1.37;;;0.70;;
66093;SDS011;52876;49.394;10.892;2023-01-15T03:20:45;1.00;;;0.73;;
66093;SDS011;52876;49.394;10.892;2023-01-15T03:23:16;0.90;;;0.70;;
66093;SDS011;52876;49.394;10.892;2023-01-15T03:25:49;1.10;;;0.80;;
66093;SDS011;52876;49.394;10.892;2023-01-15T03:28:17;0.97;;;0.70;;
66093;SDS011;52876;49.394;10.892;2023-01-15T03:30:49;1.30;;;0.77;;
66093;SDS011;52876;49.394;10.892;2023-01-15T03:33:15;1.20;;;0.80;;
66093;SDS011;52876;49.394;10.892;2023-01-15T03:35:43;0.93;;;0.80;;
66093;SDS011;52876;49.394;10.892;2023-01-15T03:38:12;1.00;;;0.80;;
66093;SDS011;52876;49.394;10.892;2023-01-15T03:40:42;1.33;;;0.70;;
66093;SDS011;52876;49.394;10.892;2023-01-15T03:43:13;1.00;;;0.80;;
66093;SDS011;52876;49.394;10.892;2023-01-15T03:45:46;0.90;;;0.77;;
66093;SDS011;52876;49.394;10.892;2023-01-15T03:48:15;0.97;;;0.73;;
66093;SDS011;52876;49.394;10.892;2023-01-15T03:50:51;1.00;;;0.70;;
66093;SDS011;52876;49.394;10.892;2023-01-15T03:53:22;0.97;;;0.80;;
66093;SDS011;52876;49.394;10.892;2023-01-15T03:55:55;1.33;;;0.70;;
66093;SDS011;52876;49.394;10.892;2023-01-15T03:58:26;0.90;;;0.70;;
66093;SDS011;52876;49.394;10.892;2023-01-15T04:00:57;0.90;;;0.60;;
66093;SDS011;52876;49.394;10.892;2023-01-15T04:03:26;1.90;;;0.83;;
66093;SDS011;52876;49.394;10.892;2023-01-15T04:05:54;3.10;;;0.70;;
66093;SDS011;52876;49.394;10.892;2023-01-15T04:08:23;1.17;;;0.80;;
66093;SDS011;52876;49.394;10.892;2023-01-15T04:10:54;0.90;;;0.80;;
66093;SDS011;52876;49.394;10.892;2023-01-15T04:13:21;1.03;;;0.70;;
66093;SDS011;52876;49.394;10.892;2023-01-15T04:15:47;0.93;;;0.80;;
66093;SDS011;52876;49.394;10.892;2023-01-15T04:18:15;1.00;;;0.77;;
66093;SDS011;52876;49.394;10.892;2023-01-15T04:20:41;0.90;;;0.80;;
66093;SDS011;52876;49.394;10.892;2023-01-15T04:23:07;1.00;;;0.80;;
66093;SDS011;52876;49.394;10.892;2023-01-15T04:25:33;0.93;;;0.70;;
66093;SDS011;52876;49.394;10.892;2023-01-15T04:27:59;1.03;;;0.80;;
66093;SDS011;52876;49.394;10.892;2023-01-15T04:30:25;1.00;;;0.80;;
66093;SDS011;52876;49.394;10.892;2023-01-15T04:32:51;1.00;;;0.70;;
66093;SDS011;52876;49.394;10.892;2023-01-15T04:35:19;1.57;;;0.70;;
66093;SDS011;52876;49.394;10.892;2023-01-15T04:37:47;0.90;;;0.70;;
66093;SDS011;52876;49.394;10.892;2023-01-15T04:40:12;1.00;;;0.70;;
66093;SDS011;52876;49.394;10.892;2023-01-15T04:42:40;1.83;;;0.80;;
66093;SDS011;52876;49.394;10.892;2023-01-15T04:45:06;2.50;;;1.10;;
66093;SDS011;52876;49.394;10.892;2023-01-15T04:47:34;2.43;;;0.80;;
66093;SDS011;52876;49.394;10.892;2023-01-15T04:50:00;1.03;;;0.77;;
66093;SDS011;52876;49.394;10.892;2023-01-15T04:52:28;0.87;;;0.70;;
66093;SDS011;52876;49.394;10.892;2023-01-15T04:54:54;0.90;;;0.73;;
66093;SDS011;52876;49.394;10.892;2023-01-15T04:57:20;1.20;;;0.70;;
66093;SDS011;52876;49.394;10.892;2023-01-15T04:59:46;0.90;;;0.70;;
66093;SDS011;52876;49.394;10.892;2023-01-15T05:02:13;0.90;;;0.73;;
66093;SDS011;52876;49.394;10.892;2023-01-15T05:04:39;1.10;;;0.60;;
66093;SDS011;52876;49.394;10.892;2023-01-15T05:07:04;1.00;;;0.70;;
66093;SDS011;52876;49.394;10.892;2023-01-15T05:09:31;1.10;;;0.80;;
66093;SDS011;52876;49.394;10.892;2023-01-15T05:11:57;0.90;;;0.70;;
66093;SDS011;52876;49.394;10.892;2023-01-15T05:14:23;0.90;;;0.70;;
66093;SDS011;52876;49.394;10.892;2023-01-15T05:16:49;2.07;;;0.70;;
66093;SDS011;52876;49.394;10.892;2023-01-15T05:19:15;1.50;;;0.77;;
66093;SDS011;52876;49.394;10.892;2023-01-15T05:21:42;1.20;;;0.80;;
66093;SDS011;52876;49.394;10.892;2023-01-15T05:24:09;0.90;;;0.70;;
66093;SDS011;52876;49.394;10.892;2023-01-15T05:26:41;0.90;;;0.60;;
66093;SDS011;52876;49.394;10.892;2023-01-15T05:29:07;0.90;;;0.60;;
66093;SDS011;52876;49.394;10.892;2023-01-15T05:31:34;0.90;;;0.60;;
66093;SDS011;52876;49.394;10.892;2023-01-15T05:34:00;1.20;;;0.60;;
66093;SDS011;52876;49.394;10.892;2023-01-15T05:36:27;2.17;;;0.60;;
66093;SDS011;52876;49.394;10.892;2023-01-15T05:38:55;1.00;;;0.70;;
66093;SDS011;52876;49.394;10.892;2023-01-15T05:41:23;1.30;;;0.80;;
66093;SDS011;52876;49.394;10.892;2023-01-15T05:43:50;2.50;;;0.70;;
66093;SDS011;52876;49.394;10.892;2023-01-15T05:46:15;0.97;;;0.70;;
66093;SDS011;52876;49.394;10.892;2023-01-15T05:48:41;0.90;;;0.70;;
66093;SDS011;52876;49.394;10.892;2023-01-15T05:51:08;1.00;;;0.60;;
66093;SDS011;52876;49.394;10.892;2023-01-15T05:53:34;0.90;;;0.70;;
66093;SDS011;52876;49.394;10.892;2023-01-15T05:56:01;1.00;;;0.80;;
66093;SDS011;52876;49.394;10.892;2023-01-15T05:58:27;0.90;;;0.60;;
66093;SDS011;52876;49.394;10.892;2023-01-15T06:00:56;4.07;;;3.77;;
66093;SDS011;52876;49.394;10.892;2023-01-15T06:03:22;1.20;;;0.60;;
66093;SDS011;52876;49.394;10.892;2023-01-15T06:05:50;1.00;;;0.90;;
66093;SDS011;52876;49.394;10.892;2023-01-15T06:08:16;1.50;;;1.40;;
66093;SDS011;52876;49.394;10.892;2023-01-15T06:10:43;4.30;;;2.10;;
66093;SDS011;52876;49.394;10.892;2023-01-15T06:13:08;1.47;;;0.60;;
66093;SDS011;52876;49.394;10.892;2023-01-15T06:15:36;5.10;;;4.03;;
66093;SDS011;52876;49.394;10.892;2023-01-15T06:18:03;1.20;;;1.00;;
66093;SDS011;52876;49.394;10.892;2023-01-15T06:20:30;1.87;;;1.70;;
66093;SDS011;52876;49.394;10.892;2023-01-15T06:22:56;1.20;;;0.80;;
66093;SDS011;52876;49.394;10.892;2023-01-15T06:25:23;0.90;;;0.70;;
66093;SDS011;52876;49.394;10.892;2023-01-15T06:27:49;1.30;;;0.70;;
66093;SDS011;52876;49.394;10.892;2023-01-15T06:30:15;1.20;;;0.80;;
66093;SDS011;52876;49.394;10.892;2023-01-15T06:32:43;0.90;;;0.60;;
66093;SDS011;52876;49.394;10.892;2023-01-15T06:35:10;1.63;;;0.80;;
66093;SDS011;52876;49.394;10.892;2023-01-15T06:37:38;1.00;;;0.70;;
66093;SDS011;52876;49.394;10.892;2023-01-15T06:40:04;1.00;;;0.80;;
66093;SDS011;52876;49.394;10.892;2023-01-15T06:42:32;0.90;;;0.60;;
66093;SDS011;52876;49.394;10.892;2023-01-15T06:44:58;0.97;;;0.73;;
66093;SDS011;52876;49.394;10.892;2023-01-15T06:47:23;0.90;;;0.60;;
66093;SDS011;52876;49.394;10.892;2023-01-15T06:49:50;0.90;;;0.60;;
66093;SDS011;52876;49.394;10.892;2023-01-15T06:52:18;1.10;;;0.80;;
66093;SDS011;52876;49.394;10.892;2023-01-15T06:54:44;0.93;;;0.83;;
66093;SDS011;52876;49.394;10.892;2023-01-15T06:57:11;1.10;;;1.00;;
66093;SDS011;52876;49.394;10.892;2023-01-15T06:59:37;1.10;;;0.90;;
66093;SDS011;52876;49.394;10.892;2023-01-15T07:02:05;1.10;;;1.00;;
66093;SDS011;52876;49.394;10.892;2023-01-15T07:04:31;1.00;;;0.80;;
66093;SDS011;52876;49.394;10.892;2023-01-15T07:06:58;1.10;;;1.00;;
66093;SDS011;52876;49.394;10.892;2023-01-15T07:09:25;1.30;;;0.97;;
66093;SDS011;52876;49.394;10.892;2023-01-15T07:11:51;1.23;;;1.03;;
66093;SDS011;52876;49.394;10.892;2023-01-15T07:14:17;0.97;;;0.80;;
66093;SDS011;52876;49.394;10.892;2023-01-15T07:16:45;1.50;;;1.00;;
66093;SDS011;52876;49.394;10.892;2023-01-15T07:19:11;1.00;;;0.90;;
66093;SDS011;52876;49.394;10.892;2023-01-15T07:21:38;1.00;;;0.80;;
66093;SDS011;52876;49.394;10.892;2023-01-15T07:24:04;1.00;;;0.90;;
66093;SDS011;52876;49.394;10.892;2023-01-15T07:26:33;1.30;;;1.20;;
66093;SDS011;52876;49.394;10.892;2023-01-15T07:28:59;1.10;;;1.00;;
66093;SDS011;52876;49.394;10.892;2023-01-15T07:31:26;1.30;;;1.20;;
66093;SDS011;52876;49.394;10.892;2023-01-15T07:33:52;1.10;;;1.00;;
66093;SDS011;52876;49.394;10.892;2023-01-15T07:36:19;1.60;;;1.50;;
66093;SDS011;52876;49.394;10.892;2023-01-15T07:38:44;1.60;;;1.50;;
66093;SDS011;52876;49.394;10.892;2023-01-15T07:41:12;1.80;;;1.03;;
66093;SDS011;52876;49.394;10.892;2023-01-15T07:43:39;1.43;;;1.33;;
66093;SDS011;52876;49.394;10.892;2023-01-15T07:46:08;1.30;;;1.20;;
66093;SDS011;52876;49.394;10.892;2023-01-15T07:48:34;1.97;;;1.30;;
66093;SDS011;52876;49.394;10.892;2023-01-15T07:51:03;1.50;;;1.40;;
66093;SDS011;52876;49.394;10.892;2023-01-15T07:53:28;1.83;;;1.60;;
66093;SDS011;52876;49.394;10.892;2023-01-15T07:55:54;1.50;;;1.40;;
66093;SDS011;52876;49.394;10.892;2023-01-15T07:58:20;1.57;;;1.47;;
66093;SDS011;52876;49.394;10.892;2023-01-15T08:00:47;1.50;;;1.40;;
66093;SDS011;52876;49.394;10.892;2023-01-15T08:03:13;2.20;;;2.00;;
66093;SDS011;52876;49.394;10.892;2023-01-15T08:05:38;2.70;;;2.50;;
66093;SDS011;52876;49.394;10.892;2023-01-15T08:08:04;2.27;;;2.07;;
66093;SDS011;52876;49.394;10.892;2023-01-15T08:10:31;3.43;;;2.93;;
66093;SDS011;52876;49.394;10.892;2023-01-15T08:12:57;1.73;;;1.63;;
66093;SDS011;52876;49.394;10.892;2023-01-15T08:15:24;2.03;;;1.40;;
66093;SDS011;52876;49.394;10.892;2023-01-15T08:17:51;1.33;;;1.23;;
66093;SDS011;52876;49.394;10.892;2023-01-15T08:20:19;1.40;;;1.30;;
66093;SDS011;52876;49.394;10.892;2023-01-15T08:22:48;1.53;;;1.43;;
66093;SDS011;52876;49.394;10.892;2023-01-15T08:25:15;1.30;;;1.20;;
66093;SDS011;52876;49.394;10.892;2023-01-15T08:27:43;1.23;;;1.10;;
66093;SDS011;52876;49.394;10.892;2023-01-15T08:30:10;1.20;;;1.00;;
66093;SDS011;52876;49.394;10.892;2023-01-15T08:32:42;1.20;;;1.10;;
66093;SDS011;52876;49.394;10.892;2023-01-15T08:35:09;1.23;;;1.10;;
66093;SDS011;52876;49.394;10.892;2023-01-15T08:37:36;1.27;;;1.17;;
66093;SDS011;52876;49.394;10.892;2023-01-15T08:40:02;1.60;;;1.50;;
66093;SDS011;52876;49.394;10.892;2023-01-15T08:42:30;1.00;;;0.90;;
66093;SDS011;52876;49.394;10.892;2023-01-15T08:44:56;1.30;;;1.10;;
66093;SDS011;52876;49.394;10.892;2023-01-15T08:47:21;1.83;;;1.10;;
66093;SDS011;52876;49.394;10.892;2023-01-15T08:49:47;1.43;;;1.23;;
66093;SDS011;52876;49.394;10.892;2023-01-15T08:52:16;2.43;;;1.60;;
66093;SDS011;52876;49.394;10.892;2023-01-15T08:54:41;2.47;;;2.27;;
66093;SDS011;52876;49.394;10.892;2023-01-15T08:57:07;1.73;;;1.50;;
66093;SDS011;52876;49.394;10.892;2023-01-15T08:59:33;1.10;;;1.00;;
66093;SDS011;52876;49.394;10.892;2023-01-15T09:02:00;1.87;;;1.30;;
66093;SDS011;52876;49.394;10.892;2023-01-15T09:04:26;1.30;;;1.20;;
66093;SDS011;52876;49.394;10.892;2023-01-15T09:06:53;1.50;;;1.40;;
66093;SDS011;52876;49.394;10.892;2023-01-15T09:09:21;1.50;;;1.40;;
66093;SDS011;52876;49.394;10.892;2023-01-15T09:11:48;1.30;;;1.20;;
66093;SDS011;52876;49.394;10.892;2023-01-15T09:14:14;3.37;;;3.17;;
66093;SDS011;52876;49.394;10.892;2023-01-15T09:16:40;2.63;;;2.43;;
66093;SDS011;52876;49.394;10.892;2023-01-15T09:19:06;1.80;;;1.70;;
66093;SDS011;52876;49.394;10.892;2023-01-15T09:21:35;1.87;;;1.77;;
66093;SDS011;52876;49.394;10.892;2023-01-15T09:24:01;1.50;;;1.40;;
66093;SDS011;52876;49.394;10.892;2023-01-15T09:26:31;1.40;;;1.27;;
66093;SDS011;52876;49.394;10.892;2023-01-15T09:28:58;3.53;;;1.50;;
66093;SDS011;52876;49.394;10.892;2023-01-15T09:31:24;1.90;;;1.67;;
66093;SDS011;52876;49.394;10.892;2023-01-15T09:33:50;4.10;;;2.57;;
66093;SDS011;52876;49.394;10.892;2023-01-15T09:36:17;5.53;;;3.30;;
66093;SDS011;52876;49.394;10.892;2023-01-15T09:38:45;2.07;;;1.97;;
66093;SDS011;52876;49.394;10.892;2023-01-15T09:41:14;4.27;;;3.87;;
66093;SDS011;52876;49.394;10.892;2023-01-15T09:43:44;2.63;;;2.07;;
66093;SDS011;52876;49.394;10.892;2023-01-15T09:46:19;2.90;;;2.70;;
66093;SDS011;52876;49.394;10.892;2023-01-15T09:48:50;1.97;;;1.70;;
66093;SDS011;52876;49.394;10.892;2023-01-15T09:51:26;1.27;;;1.17;;
66093;SDS011;52876;49.394;10.892;2023-01-15T09:54:10;1.63;;;1.53;;
66093;SDS011;52876;49.394;10.892;2023-01-15T09:56:45;1.90;;;1.80;;
66093;SDS011;52876;49.394;10.892;2023-01-15T09:59:19;2.90;;;2.50;;
66093;SDS011;52876;49.394;10.892;2023-01-15T10:01:53;2.63;;;2.43;;
66093;SDS011;52876;49.394;10.892;2023-01-15T10:04:25;2.43;;;2.27;;
66093;SDS011;52876;49.394;10.892;2023-01-15T10:07:04;1.70;;;1.50;;
66093;SDS011;52876;49.394;10.892;2023-01-15T10:09:34;1.40;;;1.30;;
66093;SDS011;52876;49.394;10.892;2023-01-15T10:12:08;2.57;;;2.40;;
66093;SDS011;52876;49.394;10.892;2023-01-15T10:14:44;2.57;;;2.37;;
66093;SDS011;52876;49.394;10.892;2023-01-15T10:17:24;1.93;;;1.40;;
66093;SDS011;52876;49.394;10.892;2023-01-15T10:19:52;2.73;;;1.83;;
66093;SDS011;52876;49.394;10.892;2023-01-15T10:22:22;2.80;;;2.60;;
66093;SDS011;52876;49.394;10.892;2023-01-15T10:25:07;3.80;;;3.50;;
66093;SDS011;52876;49.394;10.892;2023-01-15T10:27:40;3.00;;;2.80;;
66093;SDS011;52876;49.394;10.892;2023-01-15T10:30:14;4.00;;;3.70;;
66093;SDS011;52876;49.394;10.892;2023-01-15T10:32:46;5.50;;;3.37;;
66093;SDS011;52876;49.394;10.892;2023-01-15T10:35:20;1.73;;;1.63;;
66093;SDS011;52876;49.394;10.892;2023-01-15T10:37:55;3.37;;;2.23;;
66093;SDS011;52876;49.394;10.892;2023-01-15T10:40:30;1.30;;;1.20;;
66093;SDS011;52876;49.394;10.892;2023-01-15T10:43:16;2.10;;;1.90;;
66093;SDS011;52876;49.394;10.892;2023-01-15T10:45:49;2.23;;;2.10;;
66093;SDS011;52876;49.394;10.892;2023-01-15T10:48:20;3.43;;;2.00;;
66093;SDS011;52876;49.394;10.892;2023-01-15T10:50:52;3.00;;;2.70;;
66093;SDS011;52876;49.394;10.892;2023-01-15T10:53:22;3.63;;;3.30;;
66093;SDS011;52876;49.394;10.892;2023-01-15T10:55:54;4.97;;;4.00;;
66093;SDS011;52876;49.394;10.892;2023-01-15T10:58:24;1.63;;;1.10;;
66093;SDS011;52876;49.394;10.892;2023-01-15T11:01:02;2.33;;;2.23;;
66093;SDS011;52876;49.394;10.892;2023-01-15T11:03:32;1.90;;;1.80;;
66093;SDS011;52876;49.394;10.892;2023-01-15T11:06:03;3.07;;;2.50;;
66093;SDS011;52876;49.394;10.892;2023-01-15T11:08:30;2.40;;;2.00;;
66093;SDS011;52876;49.394;10.892;2023-01-15T11:11:03;1.70;;;1.60;;
66093;SDS011;52876;49.394;10.892;2023-01-15T11:13:39;1.33;;;1.23;;
66093;SDS011;52876;49.394;10.892;2023-01-15T11:16:20;1.10;;;1.00;;
66093;SDS011;52876;49.394;10.892;2023-01-15T11:18:49;1.10;;;1.00;;
66093;SDS011;52876;49.394;10.892;2023-01-15T11:21:17;1.70;;;1.60;;
66093;SDS011;52876;49.394;10.892;2023-01-15T11:23:45;1.00;;;0.90;;
66093;SDS011;52876;49.394;10.892;2023-01-15T11:26:15;1.03;;;0.90;;
66093;SDS011;52876;49.394;10.892;2023-01-15T11:28:44;1.10;;;1.00;;
66093;SDS011;52876;49.394;10.892;2023-01-15T11:31:11;1.40;;;1.30;;
66093;SDS011;52876;49.394;10.892;2023-01-15T11:33:42;1.47;;;1.37;;
66093;SDS011;52876;49.394;10.892;2023-01-15T11:36:18;1.00;;;0.90;;
66093;SDS011;52876;49.394;10.892;2023-01-15T11:38:46;1.20;;;1.10;;
66093;SDS011;52876;49.394;10.892;2023-01-15T11:41:18;1.00;;;0.90;;
66093;SDS011;52876;49.394;10.892;2023-01-15T11:43:52;1.30;;;1.20;;
66093;SDS011;52876;49.394;10.892;2023-01-15T11:46:25;1.00;;;0.90;;
66093;SDS011;52876;49.394;10.892;2023-01-15T11:48:53;1.00;;;0.90;;
66093;SDS011;52876;49.394;10.892;2023-01-15T11:51:21;1.30;;;1.20;;
66093;SDS011;52876;49.394;10.892;2023-01-15T11:53:48;1.00;;;0.90;;
66093;SDS011;52876;49.394;10.892;2023-01-15T11:56:20;0.90;;;0.80;;
66093;SDS011;52876;49.394;10.892;2023-01-15T11:58:49;1.10;;;1.00;;
66093;SDS011;52876;49.394;10.892;2023-01-15T12:01:20;1.10;;;1.00;;
66093;SDS011;52876;49.394;10.892;2023-01-15T12:03:48;1.00;;;0.80;;
66093;SDS011;52876;49.394;10.892;2023-01-15T12:06:17;1.17;;;1.07;;
66093;SDS011;52876;49.394;10.892;2023-01-15T12:08:47;1.20;;;1.10;;
66093;SDS011;52876;49.394;10.892;2023-01-15T12:11:21;1.87;;;1.00;;
66093;SDS011;52876;49.394;10.892;2023-01-15T12:13:57;0.90;;;0.80;;
66093;SDS011;52876;49.394;10.892;2023-01-15T12:16:36;1.10;;;1.00;;
66093;SDS011;52876;49.394;10.892;2023-01-15T12:19:13;0.90;;;0.80;;
66093;SDS011;52876;49.394;10.892;2023-01-15T12:22:08;1.37;;;1.27;;
66093;SDS011;52876;49.394;10.892;2023-01-15T12:27:49;1.00;;;0.90;;
66093;SDS011;52876;49.394;10.892;2023-01-15T12:30:20;1.87;;;1.10;;
66093;SDS011;52876;49.394;10.892;2023-01-15T12:33:10;1.50;;;1.40;;
66093;SDS011;52876;49.394;10.892;2023-01-15T12:35:45;1.47;;;1.37;;
66093;SDS011;52876;49.394;10.892;2023-01-15T12:38:19;1.40;;;1.30;;
66093;SDS011;52876;49.394;10.892;2023-01-15T12:40:56;1.30;;;1.20;;
66093;SDS011;52876;49.394;10.892;2023-01-15T12:43:26;1.30;;;1.20;;
66093;SDS011;52876;49.394;10.892;2023-01-15T12:45:52;1.60;;;1.33;;
66093;SDS011;52876;49.394;10.892;2023-01-15T12:48:21;2.17;;;2.00;;
66093;SDS011;52876;49.394;10.892;2023-01-15T12:50:55;1.67;;;1.57;;
66093;SDS011;52876;49.394;10.892;2023-01-15T12:53:25;1.87;;;1.77;;
66093;SDS011;52876;49.394;10.892;2023-01-15T12:55:56;2.17;;;1.97;;
66093;SDS011;52876;49.394;10.892;2023-01-15T13:01:15;1.43;;;1.33;;
66093;SDS011;52876;49.394;10.892;2023-01-15T13:03:59;1.50;;;1.40;;
66093;SDS011;52876;49.394;10.892;2023-01-15T13:06:34;1.40;;;1.30;;
66093;SDS011;52876;49.394;10.892;2023-01-15T13:09:09;1.70;;;1.50;;
66093;SDS011;52876;49.394;10.892;2023-01-15T13:11:41;2.10;;;1.33;;
66093;SDS011;52876;49.394;10.892;2023-01-15T13:14:08;1.87;;;1.30;;
66093;SDS011;52876;49.394;10.892;2023-01-15T13:16:40;1.73;;;1.63;;
66093;SDS011;52876;49.394;10.892;2023-01-15T13:19:27;1.53;;;1.43;;
66093;SDS011;52876;49.394;10.892;2023-01-15T13:22:00;1.60;;;1.50;;
66093;SDS011;52876;49.394;10.892;2023-01-15T13:24:35;1.50;;;1.40;;
66093;SDS011;52876;49.394;10.892;2023-01-15T13:27:23;1.97;;;1.60;;
66093;SDS011;52876;49.394;10.892;2023-01-15T13:30:03;3.33;;;2.13;;
66093;SDS011;52876;49.394;10.892;2023-01-15T13:32:48;2.27;;;1.43;;
66093;SDS011;52876;49.394;10.892;2023-01-15T13:35:18;1.30;;;1.20;;
66093;SDS011;52876;49.394;10.892;2023-01-15T13:37:52;1.83;;;1.73;;
66093;SDS011;52876;49.394;10.892;2023-01-15T13:40:24;1.80;;;1.70;;
66093;SDS011;52876;49.394;10.892;2023-01-15T13:42:53;2.53;;;1.77;;
66093;SDS011;52876;49.394;10.892;2023-01-15T13:45:21;1.70;;;1.50;;
66093;SDS011;52876;49.394;10.892;2023-01-15T13:47:58;1.37;;;1.27;;
66093;SDS011;52876;49.394;10.892;2023-01-15T13:50:31;2.43;;;1.90;;
66093;SDS011;52876;49.394;10.892;2023-01-15T13:52:59;2.70;;;2.27;;
66093;SDS011;52876;49.394;10.892;2023-01-15T13:55:29;2.47;;;1.63;;
66093;SDS011;52876;49.394;10.892;2023-01-15T13:57:58;1.30;;;1.20;;
66093;SDS011;52876;49.394;10.892;2023-01-15T14:00:26;1.80;;;1.40;;
66093;SDS011;52876;49.394;10.892;2023-01-15T14:02:55;1.83;;;1.67;;
66093;SDS011;52876;49.394;10.892;2023-01-15T14:05:27;2.10;;;1.20;;
66093;SDS011;52876;49.394;10.892;2023-01-15T14:07:54;2.33;;;1.67;;
66093;SDS011;52876;49.394;10.892;2023-01-15T14:10:25;2.03;;;1.57;;
66093;SDS011;52876;49.394;10.892;2023-01-15T14:16:02;2.10;;;1.90;;
66093;SDS011;52876;49.394;10.892;2023-01-15T14:21:38;3.50;;;1.47;;
66093;SDS011;52876;49.394;10.892;2023-01-15T14:27:12;3.17;;;1.70;;
66093;SDS011;52876;49.394;10.892;2023-01-15T14:29:57;1.50;;;1.30;;
66093;SDS011;52876;49.394;10.892;2023-01-15T14:32:39;1.73;;;1.50;;
66093;SDS011;52876;49.394;10.892;2023-01-15T14:35:17;5.30;;;2.20;;
66093;SDS011;52876;49.394;10.892;2023-01-15T14:37:47;2.50;;;2.30;;
66093;SDS011;52876;49.394;10.892;2023-01-15T14:40:17;5.90;;;3.87;;
66093;SDS011;52876;49.394;10.892;2023-01-15T14:42:48;3.77;;;2.80;;
66093;SDS011;52876;49.394;10.892;2023-01-15T14:45:18;2.30;;;1.83;;
66093;SDS011;52876;49.394;10.892;2023-01-15T14:47:50;3.30;;;2.47;;
66093;SDS011;52876;49.394;10.892;2023-01-15T14:50:20;4.00;;;2.00;;
66093;SDS011;52876;49.394;10.892;2023-01-15T14:52:50;1.97;;;1.67;;
66093;SDS011;52876;49.394;10.892;2023-01-15T14:55:19;1.53;;;1.43;;
66093;SDS011;52876;49.394;10.892;2023-01-15T14:57:50;3.53;;;3.23;;
66093;SDS011;52876;49.394;10.892;2023-01-15T15:00:22;5.50;;;3.23;;
66093;SDS011;52876;49.394;10.892;2023-01-15T15:02:53;3.10;;;1.93;;